sensor_id;sensor_type;location;lat;lon;timestamp;pressure;altitude;pressure_sealevel;temperature;humidity
43153;BME280;28756;49.064;9.290;2023-04-26T00:02:10;99180.38;;;3.76;100.00
43153;BME280;28756;49.064;9.290;2023-04-26T00:04:39;99181.31;;;3.72;100.00
43153;BME280;28756;49.064;9.290;2023-04-26T00:07:05;99185.69;;;3.70;100.00
43153;BME280;28756;49.064;9.290;2023-04-26T00:09:32;99186.63;;;3.66;100.00
43153;BME280;28756;49.064;9.290;2023-04-26T00:11:58;99188.47;;;3.60;100.00
43153;BME280;28756;49.064;9.290;2023-04-26T00:14:24;99183.44;;;3.56;100.00
43153;BME280;28756;49.064;9.290;2023-04-26T00:16:50;99187.88;;;3.49;100.00
43153;BME280;28756;49.064;9.290;2023-04-26T00:19:16;99185.25;;;3.52;100.00
43153;BME280;28756;49.064;9.290;2023-04-26T00:21:43;99189.41;;;3.56;100.00
43153;BME280;28756;49.064;9.290;2023-04-26T00:24:08;99190.28;;;3.55;100.00
43153;BME280;28756;49.064;9.290;2023-04-26T00:26:34;99194.53;;;3.58;100.00
43153;BME280;28756;49.064;9.290;2023-04-26T00:29:02;99194.44;;;3.62;100.00
43153;BME280;28756;49.064;9.290;2023-04-26T00:31:28;99187.59;;;3.61;100.00
43153;BME280;28756;49.064;9.290;2023-04-26T00:33:54;99195.25;;;3.63;100.00
43153;BME280;28756;49.064;9.290;2023-04-26T00:36:20;99193.63;;;3.60;100.00
43153;BME280;28756;49.064;9.290;2023-04-26T00:38:46;99181.63;;;3.59;100.00
43153;BME280;28756;49.064;9.290;2023-04-26T00:41:13;99185.09;;;3.58;100.00
43153;BME280;28756;49.064;9.290;2023-04-26T00:43:39;99192.06;;;3.53;100.00
43153;BME280;28756;49.064;9.290;2023-04-26T00:46:07;99194.59;;;3.55;100.00
43153;BME280;28756;49.064;9.290;2023-04-26T00:48:34;99200.66;;;3.52;100.00
43153;BME280;28756;49.064;9.290;2023-04-26T00:51:00;99196.47;;;3.48;100.00
43153;BME280;28756;49.064;9.290;2023-04-26T00:53:27;99201.69;;;3.45;100.00
43153;BME280;28756;49.064;9.290;2023-04-26T00:55:53;99208.63;;;3.41;100.00
43153;BME280;28756;49.064;9.290;2023-04-26T00:58:19;99206.13;;;3.38;100.00
43153;BME280;28756;49.064;9.290;2023-04-26T01:00:45;99206.28;;;3.32;100.00
43153;BME280;28756;49.064;9.290;2023-04-26T01:03:11;99208.91;;;3.29;100.00
43153;BME280;28756;49.064;9.290;2023-04-26T01:05:37;99215.00;;;3.25;100.00
43153;BME280;28756;49.064;9.290;2023-04-26T01:08:04;99213.34;;;3.22;100.00
43153;BME280;28756;49.064;9.290;2023-04-26T01:10:31;99215.22;;;3.15;100.00
43153;BME280;28756;49.064;9.290;2023-04-26T01:12:59;99217.84;;;3.12;100.00
43153;BME280;28756;49.064;9.290;2023-04-26T01:15:26;99217.91;;;3.09;100.00
43153;BME280;28756;49.064;9.290;2023-04-26T01:17:56;99215.50;;;3.03;100.00
43153;BME280;28756;49.064;9.290;2023-04-26T01:20:22;99211.28;;;2.99;100.00
43153;BME280;28756;49.064;9.290;2023-04-26T01:22:49;99225.09;;;2.93;100.00
43153;BME280;28756;49.064;9.290;2023-04-26T01:25:15;99218.38;;;2.88;100.00
43153;BME280;28756;49.064;9.290;2023-04-26T01:27:41;99215.09;;;2.81;100.00
43153;BME280;28756;49.064;9.290;2023-04-26T01:30:08;99216.84;;;2.79;100.00
43153;BME280;28756;49.064;9.290;2023-04-26T01:32:35;99208.44;;;2.72;100.00
43153;BME280;28756;49.064;9.290;2023-04-26T01:35:01;99221.38;;;2.67;100.00
43153;BME280;28756;49.064;9.290;2023-04-26T01:37:27;99219.75;;;2.62;100.00
43153;BME280;28756;49.064;9.290;2023-04-26T01:39:53;99224.09;;;2.58;100.00
43153;BME280;28756;49.064;9.290;2023-04-26T01:42:19;99223.28;;;2.56;100.00
43153;BME280;28756;49.064;9.290;2023-04-26T01:44:44;99218.28;;;2.50;100.00
43153;BME280;28756;49.064;9.290;2023-04-26T01:47:10;99221.75;;;2.47;100.00
43153;BME280;28756;49.064;9.290;2023-04-26T01:49:36;99224.38;;;2.44;100.00
43153;BME280;28756;49.064;9.290;2023-04-26T01:52:02;99217.53;;;2.43;100.00
43153;BME280;28756;49.064;9.290;2023-04-26T01:54:28;99210.78;;;2.39;100.00
43153;BME280;28756;49.064;9.290;2023-04-26T01:56:54;99217.75;;;2.32;100.00
43153;BME280;28756;49.064;9.290;2023-04-26T01:59:20;99213.59;;;2.25;100.00
43153;BME280;28756;49.064;9.290;2023-04-26T02:01:46;99220.56;;;2.20;100.00
43153;BME280;28756;49.064;9.290;2023-04-26T02:04:11;99224.03;;;2.16;100.00
43153;BME280;28756;49.064;9.290;2023-04-26T02:06:37;99220.63;;;2.14;100.00
43153;BME280;28756;49.064;9.290;2023-04-26T02:09:04;99224.97;;;2.12;100.00
43153;BME280;28756;49.064;9.290;2023-04-26T02:11:30;99221.53;;;2.13;100.00
43153;BME280;28756;49.064;9.290;2023-04-26T02:13:56;99221.53;;;2.13;100.00
43153;BME280;28756;49.064;9.290;2023-04-26T02:16:22;99221.53;;;2.13;100.00
43153;BME280;28756;49.064;9.290;2023-04-26T02:18:48;99224.97;;;2.12;100.00
43153;BME280;28756;49.064;9.290;2023-04-26T02:21:17;99222.38;;;2.13;100.00
43153;BME280;28756;49.064;9.290;2023-04-26T02:23:44;99215.53;;;2.12;100.00
43153;BME280;28756;49.064;9.290;2023-04-26T02:26:10;99217.28;;;2.12;100.00
43153;BME280;28756;49.064;9.290;2023-04-26T02:28:38;99230.09;;;2.12;100.00
43153;BME280;28756;49.064;9.290;2023-04-26T02:31:04;99228.38;;;2.12;100.00
43153;BME280;28756;49.064;9.290;2023-04-26T02:33:30;99225.00;;;2.09;100.00
43153;BME280;28756;49.064;9.290;2023-04-26T02:35:57;99230.22;;;2.04;100.00
43153;BME280;28756;49.064;9.290;2023-04-26T02:38:23;99228.59;;;2.00;100.00
43153;BME280;28756;49.064;9.290;2023-04-26T02:41:01;99224.38;;;1.97;100.00
43153;BME280;28756;49.064;9.290;2023-04-26T02:43:27;99222.72;;;1.93;100.00
43153;BME280;28756;49.064;9.290;2023-04-26T02:45:52;99230.53;;;1.87;100.00
43153;BME280;28756;49.064;9.290;2023-04-26T02:48:18;99230.59;;;1.82;100.00
43153;BME280;28756;49.064;9.290;2023-04-26T02:50:46;99240.09;;;1.76;100.00
43153;BME280;28756;49.064;9.290;2023-04-26T02:53:12;99229.06;;;1.70;100.00
43153;BME280;28756;49.064;9.290;2023-04-26T02:55:38;99226.53;;;1.69;100.00
43153;BME280;28756;49.064;9.290;2023-04-26T02:58:04;99235.19;;;1.63;100.00
43153;BME280;28756;49.064;9.290;2023-04-26T03:00:31;99236.06;;;1.61;100.00
43153;BME280;28756;49.064;9.290;2023-04-26T03:02:58;99237.00;;;1.55;100.00
43153;BME280;28756;49.064;9.290;2023-04-26T03:05:24;99230.25;;;1.49;100.00
43153;BME280;28756;49.064;9.290;2023-04-26T03:07:50;99227.72;;;1.48;100.00
43153;BME280;28756;49.064;9.290;2023-04-26T03:10:16;99229.44;;;1.46;100.00
43153;BME280;28756;49.064;9.290;2023-04-26T03:12:42;99236.31;;;1.44;100.00
43153;BME280;28756;49.064;9.290;2023-04-26T03:15:08;99229.53;;;1.41;100.00
43153;BME280;28756;49.064;9.290;2023-04-26T03:17:34;99229.59;;;1.36;100.00
43153;BME280;28756;49.064;9.290;2023-04-26T03:20:00;99237.38;;;1.30;100.00
43153;BME280;28756;49.064;9.290;2023-04-26T03:22:26;99237.41;;;1.29;100.00
43153;BME280;28756;49.064;9.290;2023-04-26T03:24:51;99234.06;;;1.22;100.00
43153;BME280;28756;49.064;9.290;2023-04-26T03:27:17;99235.75;;;1.23;100.00
43153;BME280;28756;49.064;9.290;2023-04-26T03:29:43;99238.34;;;1.20;100.00
43153;BME280;28756;49.064;9.290;2023-04-26T03:32:09;99234.94;;;1.21;100.00
43153;BME280;28756;49.064;9.290;2023-04-26T03:34:35;99239.22;;;1.19;100.00
43153;BME280;28756;49.064;9.290;2023-04-26T03:37:01;99241.88;;;1.14;100.00
43153;BME280;28756;49.064;9.290;2023-04-26T03:39:27;99252.97;;;1.13;100.00
43153;BME280;28756;49.064;9.290;2023-04-26T03:41:53;99245.28;;;1.12;100.00
43153;BME280;28756;49.064;9.290;2023-04-26T03:44:19;99244.50;;;1.09;100.00
43153;BME280;28756;49.064;9.290;2023-04-26T03:46:45;99247.88;;;1.10;100.00
43153;BME280;28756;49.064;9.290;2023-04-26T03:49:10;99253.03;;;1.07;100.00
43153;BME280;28756;49.064;9.290;2023-04-26T03:51:36;99245.38;;;1.05;100.00
43153;BME280;28756;49.064;9.290;2023-04-26T03:54:02;99240.31;;;1.02;100.00
43153;BME280;28756;49.064;9.290;2023-04-26T03:56:28;99240.31;;;1.01;100.00
43153;BME280;28756;49.064;9.290;2023-04-26T03:58:53;99242.06;;;0.97;100.00
43153;BME280;28756;49.064;9.290;2023-04-26T04:01:19;99245.56;;;0.93;100.00
43153;BME280;28756;49.064;9.290;2023-04-26T04:03:45;99248.19;;;0.87;100.00
43153;BME280;28756;49.064;9.290;2023-04-26T04:06:11;99249.91;;;0.86;100.00
43153;BME280;28756;49.064;9.290;2023-04-26T04:08:37;99250.81;;;0.81;100.00
43153;BME280;28756;49.064;9.290;2023-04-26T04:11:03;99247.44;;;0.77;100.00
43153;BME280;28756;49.064;9.290;2023-04-26T04:13:29;99244.88;;;0.77;100.00
43153;BME280;28756;49.064;9.290;2023-04-26T04:15:54;99246.66;;;0.72;100.00
43153;BME280;28756;49.064;9.290;2023-04-26T04:18:20;99248.41;;;0.68;100.00
43153;BME280;28756;49.064;9.290;2023-04-26T04:20:46;99244.19;;;0.66;100.00
43153;BME280;28756;49.064;9.290;2023-04-26T04:23:12;99242.50;;;0.61;100.00
43153;BME280;28756;49.064;9.290;2023-04-26T04:25:37;99236.59;;;0.56;100.00
43153;BME280;28756;49.064;9.290;2023-04-26T04:28:04;99238.31;;;0.57;100.00
43153;BME280;28756;49.064;9.290;2023-04-26T04:30:30;99242.56;;;0.57;100.00
43153;BME280;28756;49.064;9.290;2023-04-26T04:32:56;99253.66;;;0.57;100.00
43153;BME280;28756;49.064;9.290;2023-04-26T04:35:25;99252.78;;;0.58;100.00
43153;BME280;28756;49.064;9.290;2023-04-26T04:37:56;99261.31;;;0.59;100.00
43153;BME280;28756;49.064;9.290;2023-04-26T04:40:24;99264.72;;;0.61;100.00
43153;BME280;28756;49.064;9.290;2023-04-26T04:42:50;99258.72;;;0.62;100.00
43153;BME280;28756;49.064;9.290;2023-04-26T04:45:16;99256.94;;;0.67;100.00
43153;BME280;28756;49.064;9.290;2023-04-26T04:47:43;99258.59;;;0.71;100.00
43153;BME280;28756;49.064;9.290;2023-04-26T04:50:10;99256.78;;;0.79;100.00
43153;BME280;28756;49.064;9.290;2023-04-26T04:52:36;99261.91;;;0.81;100.00
43153;BME280;28756;49.064;9.290;2023-04-26T04:55:02;99256.59;;;0.97;100.00
43153;BME280;28756;49.064;9.290;2023-04-26T04:57:29;99262.28;;;1.20;100.00
43153;BME280;28756;49.064;9.290;2023-04-26T04:59:57;99259.44;;;1.40;100.00
43153;BME280;28756;49.064;9.290;2023-04-26T05:02:22;99260.91;;;1.55;100.00
43153;BME280;28756;49.064;9.290;2023-04-26T05:04:48;99271.03;;;1.65;100.00
43153;BME280;28756;49.064;9.290;2023-04-26T05:07:14;99266.88;;;2.11;100.00
43153;BME280;28756;49.064;9.290;2023-04-26T05:09:41;99262.22;;;2.33;100.00
43153;BME280;28756;49.064;9.290;2023-04-26T05:12:07;99258.94;;;2.26;100.00
43153;BME280;28756;49.064;9.290;2023-04-26T05:14:33;99252.63;;;2.88;100.00
43153;BME280;28756;49.064;9.290;2023-04-26T05:16:59;99234.91;;;3.16;100.00
43153;BME280;28756;49.064;9.290;2023-04-26T05:19:25;99234.94;;;3.53;100.00
43153;BME280;28756;49.064;9.290;2023-04-26T05:21:51;99229.75;;;3.90;100.00
43153;BME280;28756;49.064;9.290;2023-04-26T05:24:17;99226.44;;;4.51;100.00
43153;BME280;28756;49.064;9.290;2023-04-26T05:26:43;99212.88;;;4.46;100.00
43153;BME280;28756;49.064;9.290;2023-04-26T05:29:09;99215.38;;;4.79;100.00
43153;BME280;28756;49.064;9.290;2023-04-26T05:31:34;99217.81;;;5.14;100.00
43153;BME280;28756;49.064;9.290;2023-04-26T05:34:01;99211.22;;;5.03;100.00
43153;BME280;28756;49.064;9.290;2023-04-26T05:36:26;99229.50;;;5.52;100.00
43153;BME280;28756;49.064;9.290;2023-04-26T05:38:52;99218.63;;;5.16;100.00
43153;BME280;28756;49.064;9.290;2023-04-26T05:41:18;99222.81;;;5.18;100.00
43153;BME280;28756;49.064;9.290;2023-04-26T05:43:46;99229.94;;;5.67;100.00
43153;BME280;28756;49.064;9.290;2023-04-26T05:46:11;99222.53;;;6.10;100.00
43153;BME280;28756;49.064;9.290;2023-04-26T05:48:37;99226.44;;;6.22;100.00
43153;BME280;28756;49.064;9.290;2023-04-26T05:51:03;99238.81;;;5.85;100.00
43153;BME280;28756;49.064;9.290;2023-04-26T05:53:29;99236.06;;;5.90;100.00
43153;BME280;28756;49.064;9.290;2023-04-26T05:55:55;99222.03;;;6.49;100.00
43153;BME280;28756;49.064;9.290;2023-04-26T05:58:21;99226.75;;;6.85;100.00
43153;BME280;28756;49.064;9.290;2023-04-26T06:00:47;99221.75;;;6.57;100.00
43153;BME280;28756;49.064;9.290;2023-04-26T06:03:12;99224.72;;;8.04;100.00
43153;BME280;28756;49.064;9.290;2023-04-26T06:05:38;99210.13;;;8.22;100.00
43153;BME280;28756;49.064;9.290;2023-04-26T06:08:04;99212.13;;;8.57;100.00
43153;BME280;28756;49.064;9.290;2023-04-26T06:10:30;99213.75;;;9.17;100.00
43153;BME280;28756;49.064;9.290;2023-04-26T06:12:56;99210.75;;;9.07;100.00
43153;BME280;28756;49.064;9.290;2023-04-26T06:15:22;99202.94;;;9.26;100.00
43153;BME280;28756;49.064;9.290;2023-04-26T06:17:47;99206.81;;;9.54;100.00
43153;BME280;28756;49.064;9.290;2023-04-26T06:20:13;99206.34;;;9.46;100.00
43153;BME280;28756;49.064;9.290;2023-04-26T06:22:39;99205.56;;;8.88;100.00
43153;BME280;28756;49.064;9.290;2023-04-26T06:25:06;99207.72;;;9.53;100.00
43153;BME280;28756;49.064;9.290;2023-04-26T06:27:32;99210.78;;;10.14;100.00
43153;BME280;28756;49.064;9.290;2023-04-26T06:29:58;99202.53;;;10.41;100.00
43153;BME280;28756;49.064;9.290;2023-04-26T06:32:24;99212.28;;;9.48;100.00
43153;BME280;28756;49.064;9.290;2023-04-26T06:34:50;99211.41;;;10.37;100.00
43153;BME280;28756;49.064;9.290;2023-04-26T06:37:16;99214.53;;;10.08;100.00
43153;BME280;28756;49.064;9.290;2023-04-26T06:39:41;99208.22;;;11.13;100.00
43153;BME280;28756;49.064;9.290;2023-04-26T06:42:07;99209.34;;;11.09;100.00
43153;BME280;28756;49.064;9.290;2023-04-26T06:44:33;99208.56;;;11.07;100.00
43153;BME280;28756;49.064;9.290;2023-04-26T06:46:59;99211.56;;;10.83;88.08
43153;BME280;28756;49.064;9.290;2023-04-26T06:49:25;99215.94;;;9.80;100.00
43153;BME280;28756;49.064;9.290;2023-04-26T06:51:51;99215.84;;;10.17;100.00
43153;BME280;28756;49.064;9.290;2023-04-26T06:54:18;99217.22;;;9.54;100.00
43153;BME280;28756;49.064;9.290;2023-04-26T06:56:44;99215.97;;;9.79;100.00
43153;BME280;28756;49.064;9.290;2023-04-26T06:59:10;99213.91;;;8.76;100.00
43153;BME280;28756;49.064;9.290;2023-04-26T07:01:35;99213.25;;;10.00;100.00
43153;BME280;28756;49.064;9.290;2023-04-26T07:04:05;99207.22;;;9.82;100.00
43153;BME280;28756;49.064;9.290;2023-04-26T07:06:36;99211.19;;;9.71;100.00
43153;BME280;28756;49.064;9.290;2023-04-26T07:09:02;99210.31;;;9.71;100.00
43153;BME280;28756;49.064;9.290;2023-04-26T07:11:29;99206.88;;;8.78;100.00
43153;BME280;28756;49.064;9.290;2023-04-26T07:13:55;99202.41;;;9.91;100.00
43153;BME280;28756;49.064;9.290;2023-04-26T07:16:21;99183.13;;;10.64;100.00
43153;BME280;28756;49.064;9.290;2023-04-26T07:18:47;99184.06;;;11.11;100.00
43153;BME280;28756;49.064;9.290;2023-04-26T07:21:13;99188.72;;;10.56;100.00
43153;BME280;28756;49.064;9.290;2023-04-26T07:23:39;99185.84;;;10.95;100.00
43153;BME280;28756;49.064;9.290;2023-04-26T07:26:05;99177.19;;;11.10;96.51
43153;BME280;28756;49.064;9.290;2023-04-26T07:28:31;99179.94;;;11.07;100.00
43153;BME280;28756;49.064;9.290;2023-04-26T07:30:58;99172.81;;;10.95;90.69
43153;BME280;28756;49.064;9.290;2023-04-26T07:33:24;99173.84;;;10.92;93.50
43153;BME280;28756;49.064;9.290;2023-04-26T07:35:58;99178.75;;;11.29;94.36
43153;BME280;28756;49.064;9.290;2023-04-26T07:38:24;99169.94;;;11.15;98.99
43153;BME280;28756;49.064;9.290;2023-04-26T07:40:51;99172.28;;;11.66;90.17
43153;BME280;28756;49.064;9.290;2023-04-26T07:43:18;99175.09;;;12.08;78.77
43153;BME280;28756;49.064;9.290;2023-04-26T07:45:44;99176.53;;;11.37;75.54
43153;BME280;28756;49.064;9.290;2023-04-26T07:48:10;99176.09;;;11.61;78.73
43153;BME280;28756;49.064;9.290;2023-04-26T07:50:36;99178.09;;;11.72;68.88
43153;BME280;28756;49.064;9.290;2023-04-26T07:53:02;99178.34;;;11.67;68.77
43153;BME280;28756;49.064;9.290;2023-04-26T07:55:28;99168.41;;;12.76;65.08
43153;BME280;28756;49.064;9.290;2023-04-26T07:57:54;99169.63;;;12.71;61.49
43153;BME280;28756;49.064;9.290;2023-04-26T08:00:19;99167.69;;;13.02;69.72
43153;BME280;28756;49.064;9.290;2023-04-26T08:02:47;99176.38;;;11.56;68.11
43153;BME280;28756;49.064;9.290;2023-04-26T08:05:14;99186.50;;;11.61;84.31
43153;BME280;28756;49.064;9.290;2023-04-26T08:07:41;99183.94;;;11.29;78.97
43153;BME280;28756;49.064;9.290;2023-04-26T08:10:08;99177.53;;;10.38;83.03
43153;BME280;28756;49.064;9.290;2023-04-26T08:12:35;99180.69;;;10.61;77.50
43153;BME280;28756;49.064;9.290;2023-04-26T08:15:02;99194.31;;;10.31;76.03
43153;BME280;28756;49.064;9.290;2023-04-26T08:17:30;99177.50;;;11.36;95.74
43153;BME280;28756;49.064;9.290;2023-04-26T08:19:57;99182.13;;;11.92;79.77
43153;BME280;28756;49.064;9.290;2023-04-26T08:22:22;99194.06;;;11.03;68.95
43153;BME280;28756;49.064;9.290;2023-04-26T08:24:50;99178.66;;;11.77;65.94
43153;BME280;28756;49.064;9.290;2023-04-26T08:27:16;99177.00;;;12.35;66.76
43153;BME280;28756;49.064;9.290;2023-04-26T08:29:44;99186.41;;;12.52;63.43
43153;BME280;28756;49.064;9.290;2023-04-26T08:32:10;99186.16;;;11.97;58.01
43153;BME280;28756;49.064;9.290;2023-04-26T08:34:36;99189.91;;;10.67;61.74
43153;BME280;28756;49.064;9.290;2023-04-26T08:37:02;99185.75;;;12.48;68.41
43153;BME280;28756;49.064;9.290;2023-04-26T08:39:27;99189.28;;;11.88;70.02
43153;BME280;28756;49.064;9.290;2023-04-26T08:41:54;99191.78;;;11.75;72.18
43153;BME280;28756;49.064;9.290;2023-04-26T08:44:24;99187.34;;;13.07;69.39
43153;BME280;28756;49.064;9.290;2023-04-26T08:47:05;99190.53;;;13.40;61.67
43153;BME280;28756;49.064;9.290;2023-04-26T08:49:44;99194.97;;;12.25;55.28
43153;BME280;28756;49.064;9.290;2023-04-26T08:52:11;99193.75;;;11.56;55.12
43153;BME280;28756;49.064;9.290;2023-04-26T08:54:38;99193.16;;;10.54;61.65
43153;BME280;28756;49.064;9.290;2023-04-26T08:57:06;99192.78;;;12.03;66.51
43153;BME280;28756;49.064;9.290;2023-04-26T08:59:35;99181.75;;;13.14;57.39
43153;BME280;28756;49.064;9.290;2023-04-26T09:02:06;99176.84;;;13.77;59.26
43153;BME280;28756;49.064;9.290;2023-04-26T09:04:32;99176.72;;;13.78;50.01
43153;BME280;28756;49.064;9.290;2023-04-26T09:07:01;99164.94;;;14.76;55.72
43153;BME280;28756;49.064;9.290;2023-04-26T09:09:30;99175.31;;;14.26;62.10
43153;BME280;28756;49.064;9.290;2023-04-26T09:11:59;99161.72;;;15.45;60.58
43153;BME280;28756;49.064;9.290;2023-04-26T09:14:26;99155.38;;;15.72;59.69
43153;BME280;28756;49.064;9.290;2023-04-26T09:16:53;99184.53;;;13.38;54.83
43153;BME280;28756;49.064;9.290;2023-04-26T09:19:37;99179.69;;;11.58;56.02
43153;BME280;28756;49.064;9.290;2023-04-26T09:22:03;99188.94;;;11.64;60.60
43153;BME280;28756;49.064;9.290;2023-04-26T09:24:51;99174.34;;;12.78;69.39
43153;BME280;28756;49.064;9.290;2023-04-26T09:27:18;99181.44;;;12.76;53.94
43153;BME280;28756;49.064;9.290;2023-04-26T09:30:15;99172.81;;;13.31;59.63
43153;BME280;28756;49.064;9.290;2023-04-26T09:32:50;99159.84;;;14.98;61.55
43153;BME280;28756;49.064;9.290;2023-04-26T09:35:41;99158.47;;;14.17;60.48
43153;BME280;28756;49.064;9.290;2023-04-26T09:38:16;99161.34;;;14.77;54.17
43153;BME280;28756;49.064;9.290;2023-04-26T09:40:48;99146.47;;;14.90;58.96
43153;BME280;28756;49.064;9.290;2023-04-26T09:43:21;99161.72;;;13.27;64.30
43153;BME280;28756;49.064;9.290;2023-04-26T09:45:53;99160.16;;;13.24;66.44
43153;BME280;28756;49.064;9.290;2023-04-26T09:48:28;99167.50;;;12.34;70.09
43153;BME280;28756;49.064;9.290;2023-04-26T09:51:14;99174.50;;;11.12;62.25
43153;BME280;28756;49.064;9.290;2023-04-26T09:53:41;99178.59;;;10.34;62.91
43153;BME280;28756;49.064;9.290;2023-04-26T09:56:18;99164.44;;;11.05;80.96
43153;BME280;28756;49.064;9.290;2023-04-26T09:58:56;99164.59;;;11.79;74.57
43153;BME280;28756;49.064;9.290;2023-04-26T10:01:27;99163.88;;;11.31;59.41
43153;BME280;28756;49.064;9.290;2023-04-26T10:04:01;99157.50;;;12.12;65.75
43153;BME280;28756;49.064;9.290;2023-04-26T10:06:28;99161.31;;;11.61;63.23
43153;BME280;28756;49.064;9.290;2023-04-26T10:08:55;99164.69;;;11.78;59.52
43153;BME280;28756;49.064;9.290;2023-04-26T10:11:21;99163.81;;;11.16;57.04
43153;BME280;28756;49.064;9.290;2023-04-26T10:13:50;99168.34;;;11.90;73.04
43153;BME280;28756;49.064;9.290;2023-04-26T10:16:16;99173.25;;;11.49;65.12
43153;BME280;28756;49.064;9.290;2023-04-26T10:18:42;99161.69;;;11.39;65.03
43153;BME280;28756;49.064;9.290;2023-04-26T10:21:19;99153.50;;;11.61;79.76
43153;BME280;28756;49.064;9.290;2023-04-26T10:23:48;99166.09;;;11.06;69.59
43153;BME280;28756;49.064;9.290;2023-04-26T10:26:46;99165.19;;;11.08;69.25
43153;BME280;28756;49.064;9.290;2023-04-26T10:29:16;99164.28;;;11.55;70.85
43153;BME280;28756;49.064;9.290;2023-04-26T10:32:04;99159.25;;;13.53;62.86
43153;BME280;28756;49.064;9.290;2023-04-26T10:34:33;99147.06;;;14.31;55.31
43153;BME280;28756;49.064;9.290;2023-04-26T10:37:29;99133.03;;;15.19;52.01
43153;BME280;28756;49.064;9.290;2023-04-26T10:40:28;99150.13;;;13.46;57.22
43153;BME280;28756;49.064;9.290;2023-04-26T10:45:37;99144.03;;;12.20;59.36
43153;BME280;28756;49.064;9.290;2023-04-26T10:48:29;99144.72;;;11.93;61.46
43153;BME280;28756;49.064;9.290;2023-04-26T10:59:18;99126.31;;;12.68;63.62
43153;BME280;28756;49.064;9.290;2023-04-26T11:01:44;99126.22;;;12.55;63.07
43153;BME280;28756;49.064;9.290;2023-04-26T11:04:11;99136.25;;;13.31;64.44
43153;BME280;28756;49.064;9.290;2023-04-26T11:06:50;99141.25;;;12.23;54.62
43153;BME280;28756;49.064;9.290;2023-04-26T11:09:40;99136.72;;;11.96;51.72
43153;BME280;28756;49.064;9.290;2023-04-26T11:12:14;99137.84;;;11.31;54.62
43153;BME280;28756;49.064;9.290;2023-04-26T11:14:42;99133.56;;;11.30;60.60
43153;BME280;28756;49.064;9.290;2023-04-26T11:17:08;99119.50;;;11.79;61.79
43153;BME280;28756;49.064;9.290;2023-04-26T11:19:34;99120.59;;;11.89;58.34
43153;BME280;28756;49.064;9.290;2023-04-26T11:22:01;99114.97;;;12.40;67.43
43153;BME280;28756;49.064;9.290;2023-04-26T11:24:30;99115.09;;;12.10;57.38
43153;BME280;28756;49.064;9.290;2023-04-26T11:26:56;99112.69;;;12.77;57.89
43153;BME280;28756;49.064;9.290;2023-04-26T11:29:25;99112.19;;;12.29;53.30
43153;BME280;28756;49.064;9.290;2023-04-26T11:31:56;99107.69;;;12.60;58.57
43153;BME280;28756;49.064;9.290;2023-04-26T11:34:31;99096.53;;;12.43;50.95
43153;BME280;28756;49.064;9.290;2023-04-26T11:36:58;99092.41;;;12.95;70.10
43153;BME280;28756;49.064;9.290;2023-04-26T11:39:24;99094.75;;;12.44;58.94
43153;BME280;28756;49.064;9.290;2023-04-26T11:41:49;99096.28;;;12.19;61.25
43153;BME280;28756;49.064;9.290;2023-04-26T11:44:19;99089.38;;;12.74;64.73
43153;BME280;28756;49.064;9.290;2023-04-26T11:46:47;99096.88;;;11.94;56.67
43153;BME280;28756;49.064;9.290;2023-04-26T11:49:14;99087.16;;;13.23;65.64
43153;BME280;28756;49.064;9.290;2023-04-26T11:51:41;99085.09;;;12.73;49.88
43153;BME280;28756;49.064;9.290;2023-04-26T11:54:07;99089.06;;;11.94;48.98
43153;BME280;28756;49.064;9.290;2023-04-26T11:56:33;99089.47;;;12.16;54.40
43153;BME280;28756;49.064;9.290;2023-04-26T11:58:58;99073.56;;;13.18;65.24
43153;BME280;28756;49.064;9.290;2023-04-26T12:01:27;99080.28;;;13.35;49.81
43153;BME280;28756;49.064;9.290;2023-04-26T12:03:56;99072.97;;;12.72;48.00
43153;BME280;28756;49.064;9.290;2023-04-26T12:06:30;99067.09;;;13.23;58.04
43153;BME280;28756;49.064;9.290;2023-04-26T12:09:00;99061.94;;;14.01;59.64
43153;BME280;28756;49.064;9.290;2023-04-26T12:11:26;99057.13;;;13.95;52.47
43153;BME280;28756;49.064;9.290;2023-04-26T12:13:52;99065.09;;;14.06;55.06
43153;BME280;28756;49.064;9.290;2023-04-26T12:16:18;99062.13;;;14.24;54.52
43153;BME280;28756;49.064;9.290;2023-04-26T12:18:49;99055.78;;;14.52;63.68
43153;BME280;28756;49.064;9.290;2023-04-26T12:21:16;99064.47;;;13.89;45.59
43153;BME280;28756;49.064;9.290;2023-04-26T12:23:42;99050.19;;;14.19;52.82
43153;BME280;28756;49.064;9.290;2023-04-26T12:26:12;99053.81;;;13.67;53.88
43153;BME280;28756;49.064;9.290;2023-04-26T12:28:38;99054.00;;;13.89;49.61
43153;BME280;28756;49.064;9.290;2023-04-26T12:31:05;99054.13;;;13.62;48.82
43153;BME280;28756;49.064;9.290;2023-04-26T12:33:32;99064.34;;;13.39;51.20
43153;BME280;28756;49.064;9.290;2023-04-26T12:36:11;99065.25;;;12.71;49.71
43153;BME280;28756;49.064;9.290;2023-04-26T12:38:38;99064.28;;;11.72;49.76
43153;BME280;28756;49.064;9.290;2023-04-26T12:41:04;99057.88;;;12.36;47.96
43153;BME280;28756;49.064;9.290;2023-04-26T12:43:30;99066.19;;;12.13;50.44
43153;BME280;28756;49.064;9.290;2023-04-26T12:45:56;99058.63;;;12.38;47.22
43153;BME280;28756;49.064;9.290;2023-04-26T12:48:22;99060.91;;;13.11;56.46
43153;BME280;28756;49.064;9.290;2023-04-26T12:50:48;99054.31;;;12.78;53.12
43153;BME280;28756;49.064;9.290;2023-04-26T12:53:13;99058.34;;;12.97;51.74
43153;BME280;28756;49.064;9.290;2023-04-26T12:55:39;99061.31;;;13.46;53.67
43153;BME280;28756;49.064;9.290;2023-04-26T12:58:05;99058.28;;;13.52;51.32
43153;BME280;28756;49.064;9.290;2023-04-26T13:00:31;99045.34;;;13.50;48.46
43153;BME280;28756;49.064;9.290;2023-04-26T13:02:57;99042.50;;;13.66;50.20
43153;BME280;28756;49.064;9.290;2023-04-26T13:05:23;99061.53;;;13.55;51.62
43153;BME280;28756;49.064;9.290;2023-04-26T13:07:54;99055.47;;;13.55;53.05
43153;BME280;28756;49.064;9.290;2023-04-26T13:10:20;99059.38;;;13.35;54.04
43153;BME280;28756;49.064;9.290;2023-04-26T13:12:45;99050.56;;;13.76;51.50
43153;BME280;28756;49.064;9.290;2023-04-26T13:15:11;99050.91;;;13.18;51.88